createdAt,value
2019-03-31T00:01:34.104Z,18.17
2019-03-31T00:04:05.000Z,20.97
2019-03-31T00:06:35.688Z,17.47
2019-03-31T00:09:07.619Z,19.75
2019-03-31T00:11:38.057Z,19.80
2019-03-31T00:14:08.246Z,19.97
2019-03-31T00:16:39.551Z,19.70
2019-03-31T00:19:09.768Z,21.00
2019-03-31T00:21:39.947Z,17.37
2019-03-31T00:24:10.129Z,19.60
2019-03-31T00:26:40.570Z,20.80
2019-03-31T00:29:10.844Z,20.05
2019-03-31T00:31:41.028Z,22.27
2019-03-31T00:34:11.228Z,24.07
2019-03-31T00:36:42.381Z,19.83
2019-03-31T00:39:12.577Z,16.97
2019-03-31T00:41:42.840Z,20.75
2019-03-31T00:44:13.293Z,20.23
2019-03-31T00:46:44.343Z,23.60
2019-03-31T00:49:14.745Z,21.50
2019-03-31T00:51:44.927Z,17.63
2019-03-31T00:54:15.139Z,18.83
2019-03-31T00:56:45.313Z,18.17
2019-03-31T00:59:15.510Z,20.23
2019-03-31T01:01:49.968Z,18.23
2019-03-31T01:04:24.150Z,17.85
2019-03-31T01:06:55.433Z,24.15
2019-03-31T01:09:29.394Z,17.83
2019-03-31T01:12:00.276Z,19.17
2019-03-31T01:14:30.861Z,17.27
2019-03-31T01:17:02.606Z,17.70
2019-03-31T01:19:33.017Z,20.20
2019-03-31T01:22:03.194Z,20.47
2019-03-31T01:24:33.389Z,18.20
2019-03-31T01:27:05.963Z,19.83
2019-03-31T01:29:36.151Z,16.75
2019-03-31T01:32:06.582Z,19.30
2019-03-31T01:34:36.766Z,17.03
2019-03-31T01:37:08.231Z,20.17
2019-03-31T01:39:38.847Z,19.07
2019-03-31T01:42:10.079Z,18.13
2019-03-31T01:44:40.283Z,16.83
2019-03-31T01:47:11.118Z,19.87
2019-03-31T01:49:41.381Z,16.15
2019-03-31T01:52:11.556Z,17.87
2019-03-31T01:54:41.736Z,16.77
2019-03-31T01:57:13.039Z,14.03
2019-03-31T01:59:43.238Z,14.93
2019-03-31T02:02:18.219Z,14.17
2019-03-31T02:04:48.406Z,16.10
2019-03-31T02:07:18.592Z,15.77
2019-03-31T02:09:48.901Z,18.63
2019-03-31T02:12:19.163Z,16.48
2019-03-31T02:14:49.605Z,17.50
2019-03-31T02:17:20.174Z,19.17
2019-03-31T02:19:50.428Z,20.53
2019-03-31T02:22:20.607Z,20.68
2019-03-31T02:24:50.797Z,18.35
2019-03-31T02:27:20.978Z,22.00
2019-03-31T02:29:51.414Z,24.83
2019-03-31T02:32:23.899Z,20.37
2019-03-31T02:34:53.802Z,16.57
2019-03-31T02:37:23.969Z,18.45
2019-03-31T02:39:54.154Z,20.40
2019-03-31T02:42:24.363Z,17.23
2019-03-31T02:44:54.833Z,19.53
2019-03-31T02:47:25.012Z,26.33
2019-03-31T02:49:55.209Z,15.18
2019-03-31T02:52:26.423Z,18.23
2019-03-31T02:54:56.612Z,18.47
2019-03-31T02:57:27.696Z,16.40
2019-03-31T02:59:59.904Z,18.73
2019-03-31T03:02:41.363Z,19.70
2019-03-31T03:05:18.759Z,20.80
2019-03-31T03:07:39.354Z,21.67
2019-03-31T03:10:10.735Z,20.52
2019-03-31T03:12:44.644Z,24.57
2019-03-31T03:15:21.145Z,21.63
2019-03-31T03:17:51.584Z,28.20
2019-03-31T03:20:21.771Z,24.90
2019-03-31T03:22:52.048Z,24.82
2019-03-31T03:25:22.236Z,23.63
2019-03-31T03:27:52.473Z,22.60
2019-03-31T03:30:22.750Z,21.43
2019-03-31T03:33:13.372Z,19.37
2019-03-31T03:35:24.767Z,24.12
2019-03-31T03:37:55.921Z,26.30
2019-03-31T03:40:26.117Z,20.73
2019-03-31T03:42:56.459Z,28.00
2019-03-31T03:45:26.655Z,21.43
2019-03-31T03:47:56.830Z,25.43
2019-03-31T03:50:27.069Z,21.77
2019-03-31T03:52:57.249Z,17.77
2019-03-31T03:55:27.445Z,21.87
2019-03-31T03:57:57.615Z,23.73
2019-03-31T04:00:27.808Z,18.33
2019-03-31T04:02:57.986Z,21.12
2019-03-31T04:05:28.271Z,19.48
2019-03-31T04:07:58.456Z,21.03
2019-03-31T04:11:11.039Z,23.67
2019-03-31T04:13:41.993Z,23.03
2019-03-31T04:16:12.168Z,25.77
2019-03-31T04:18:42.370Z,21.87
2019-03-31T04:21:12.848Z,22.45
2019-03-31T04:23:43.190Z,28.20
2019-03-31T04:26:13.643Z,25.87
2019-03-31T04:28:43.897Z,23.70
2019-03-31T04:31:14.133Z,22.75
2019-03-31T04:33:51.419Z,18.17
2019-03-31T04:36:17.581Z,19.37
2019-03-31T04:38:47.908Z,18.43
2019-03-31T04:41:18.339Z,18.37
2019-03-31T04:43:48.913Z,21.37
2019-03-31T04:46:19.269Z,20.92
2019-03-31T04:48:50.221Z,21.95
2019-03-31T04:51:20.411Z,22.20
2019-03-31T04:53:50.592Z,19.87
2019-03-31T04:56:20.794Z,17.50
2019-03-31T04:58:50.967Z,24.67
2019-03-31T05:01:21.168Z,23.25
2019-03-31T05:04:03.893Z,28.23
2019-03-31T05:06:24.314Z,25.73
2019-03-31T05:08:54.501Z,26.40
2019-03-31T05:11:24.693Z,21.57
2019-03-31T05:13:55.354Z,27.27
2019-03-31T05:16:26.601Z,27.53
2019-03-31T05:18:56.792Z,21.97
2019-03-31T05:21:26.988Z,27.03
2019-03-31T05:23:58.393Z,26.12
2019-03-31T05:26:28.585Z,24.07
2019-03-31T05:28:58.771Z,24.45
2019-03-31T05:31:28.965Z,25.23
2019-03-31T05:33:59.409Z,27.83
2019-03-31T05:36:29.885Z,21.95
2019-03-31T05:39:00.086Z,27.98
2019-03-31T05:41:30.295Z,23.73
2019-03-31T05:44:05.867Z,25.13
2019-03-31T05:46:32.389Z,43.10
2019-03-31T05:49:02.574Z,29.90
2019-03-31T05:51:33.749Z,23.43
2019-03-31T05:54:03.993Z,18.07
2019-03-31T05:56:34.199Z,22.73
2019-03-31T05:59:04.481Z,21.55
2019-03-31T06:01:34.773Z,23.77
2019-03-31T06:04:04.987Z,24.00
2019-03-31T06:06:37.074Z,24.98
2019-03-31T06:09:07.668Z,25.85
2019-03-31T06:11:37.861Z,23.60
2019-03-31T06:14:08.051Z,29.43
2019-03-31T06:16:39.225Z,21.03
2019-03-31T06:19:09.413Z,22.30
2019-03-31T06:21:39.674Z,20.65
2019-03-31T06:24:10.113Z,25.20
2019-03-31T06:26:40.314Z,25.20
2019-03-31T06:29:10.805Z,26.23
2019-03-31T06:31:41.034Z,23.60
2019-03-31T06:34:11.495Z,26.93
2019-03-31T06:36:41.951Z,29.67
2019-03-31T06:39:12.402Z,26.95
2019-03-31T06:41:42.599Z,27.50
2019-03-31T06:44:12.784Z,32.33
2019-03-31T06:46:42.999Z,26.53
2019-03-31T06:49:13.453Z,26.33
2019-03-31T06:51:43.745Z,27.45
2019-03-31T06:54:14.925Z,28.57
2019-03-31T06:56:47.123Z,28.02
2019-03-31T06:59:18.691Z,24.63
2019-03-31T07:01:48.897Z,29.73
2019-03-31T07:04:19.340Z,28.70
2019-03-31T07:06:49.800Z,26.80
2019-03-31T07:09:20.068Z,32.10
2019-03-31T07:11:50.342Z,30.20
2019-03-31T07:14:20.780Z,31.37
2019-03-31T07:16:51.228Z,29.23
2019-03-31T07:19:21.426Z,32.77
2019-03-31T07:21:51.633Z,35.88
2019-03-31T07:24:21.809Z,31.43
2019-03-31T07:26:52.218Z,34.57
2019-03-31T07:29:22.404Z,38.07
2019-03-31T07:31:52.855Z,36.77
2019-03-31T07:34:23.295Z,36.25
2019-03-31T07:36:53.493Z,39.13
2019-03-31T07:39:23.827Z,35.40
2019-03-31T07:41:54.091Z,40.20
2019-03-31T07:44:24.254Z,44.57
2019-03-31T07:46:54.432Z,43.23
2019-03-31T07:49:24.631Z,43.83
2019-03-31T07:51:54.806Z,44.37
2019-03-31T07:54:25.258Z,43.83
2019-03-31T07:56:55.470Z,41.53
2019-03-31T07:59:25.664Z,44.80
2019-03-31T08:01:55.847Z,46.30
2019-03-31T08:04:26.482Z,43.90
2019-03-31T08:06:56.752Z,46.50
2019-03-31T08:09:28.031Z,43.93
2019-03-31T08:11:58.214Z,50.60
2019-03-31T08:14:28.427Z,46.63
2019-03-31T08:16:58.862Z,47.67
2019-03-31T08:19:29.058Z,54.07
2019-03-31T08:21:59.245Z,52.53
2019-03-31T08:24:31.789Z,50.27
2019-03-31T08:27:05.437Z,48.30
2019-03-31T08:29:34.118Z,44.60
2019-03-31T08:32:04.316Z,44.87
2019-03-31T08:34:35.556Z,36.23
2019-03-31T08:37:05.738Z,43.63
2019-03-31T08:39:36.346Z,46.30
2019-03-31T08:42:06.694Z,50.20
2019-03-31T08:44:36.897Z,40.63
2019-03-31T08:47:08.710Z,45.73
2019-03-31T08:49:39.285Z,49.27
2019-03-31T08:52:09.546Z,37.87
2019-03-31T08:54:40.433Z,44.80
2019-03-31T08:57:10.624Z,49.67
2019-03-31T08:59:41.080Z,53.20
2019-03-31T09:02:32.540Z,50.43
2019-03-31T09:05:02.823Z,53.63
2019-03-31T09:07:33.086Z,51.43
2019-03-31T09:10:03.676Z,51.43
2019-03-31T09:12:34.302Z,54.30
2019-03-31T09:15:05.216Z,58.10
2019-03-31T09:17:35.475Z,54.10
2019-03-31T09:20:07.068Z,51.73
2019-03-31T09:22:37.410Z,49.57
2019-03-31T09:25:08.031Z,52.97
2019-03-31T09:27:38.299Z,52.85
2019-03-31T09:30:11.085Z,51.27
2019-03-31T09:32:41.383Z,52.25
2019-03-31T09:35:12.461Z,55.60
2019-03-31T09:37:42.732Z,50.90
2019-03-31T09:40:13.543Z,50.07
2019-03-31T09:42:43.734Z,51.13
2019-03-31T09:45:14.316Z,48.60
2019-03-31T09:47:44.577Z,52.78
2019-03-31T09:50:17.492Z,47.20
2019-03-31T09:52:48.115Z,47.50
2019-03-31T09:55:18.405Z,50.37
2019-03-31T09:57:48.949Z,48.27
2019-03-31T10:00:25.126Z,53.23
2019-03-31T10:02:55.412Z,52.13
2019-03-31T10:05:25.701Z,52.50
2019-03-31T10:07:55.968Z,45.00
2019-03-31T10:10:32.700Z,54.10
2019-03-31T10:13:02.991Z,58.03
2019-03-31T10:15:33.201Z,52.90
2019-03-31T10:18:03.422Z,59.18
2019-03-31T10:20:33.705Z,47.97
2019-03-31T10:23:03.972Z,48.10
2019-03-31T10:25:34.259Z,51.53
2019-03-31T10:28:04.613Z,52.13
2019-03-31T10:30:36.010Z,53.13
2019-03-31T10:33:07.445Z,49.70
2019-03-31T10:35:37.789Z,49.20
2019-03-31T10:38:08.236Z,44.40
2019-03-31T10:40:38.793Z,53.55
2019-03-31T10:43:08.985Z,45.37
2019-03-31T10:45:39.210Z,46.87
2019-03-31T10:48:20.160Z,51.57
2019-03-31T10:50:41.445Z,48.87
2019-03-31T10:53:11.723Z,49.30
2019-03-31T10:55:42.618Z,43.47
2019-03-31T10:58:14.129Z,52.53
2019-03-31T11:00:44.924Z,53.07
2019-03-31T11:03:16.358Z,51.83
2019-03-31T11:05:46.566Z,50.33
2019-03-31T11:08:18.114Z,50.23
2019-03-31T11:10:48.311Z,51.63
2019-03-31T11:13:18.584Z,45.93
2019-03-31T11:15:48.829Z,50.00
2019-03-31T11:18:19.035Z,43.67
2019-03-31T11:20:49.247Z,49.57
2019-03-31T11:23:21.197Z,45.60
2019-03-31T11:25:51.407Z,45.57
2019-03-31T11:28:21.603Z,51.67
2019-03-31T11:30:51.896Z,50.27
2019-03-31T11:33:23.135Z,47.30
2019-03-31T11:35:53.338Z,52.10
2019-03-31T11:38:23.536Z,46.50
2019-03-31T11:40:54.119Z,53.87
2019-03-31T11:43:24.380Z,46.28
2019-03-31T11:45:54.895Z,51.37
2019-03-31T11:48:25.079Z,55.28
2019-03-31T11:50:55.282Z,50.33
2019-03-31T11:53:25.465Z,49.03
2019-03-31T11:55:55.669Z,47.17
2019-03-31T11:58:25.861Z,53.60
2019-03-31T12:00:57.275Z,57.85
2019-03-31T12:03:30.782Z,55.20
2019-03-31T12:05:59.514Z,56.07
2019-03-31T12:08:29.711Z,56.33
2019-03-31T12:11:00.258Z,59.80
2019-03-31T12:13:30.468Z,57.80
2019-03-31T12:16:01.894Z,60.90
2019-03-31T12:18:32.086Z,57.58
2019-03-31T12:21:02.371Z,52.87
2019-03-31T12:23:32.558Z,60.43
2019-03-31T12:26:02.913Z,55.27
2019-03-31T12:28:33.112Z,55.17
2019-03-31T12:31:03.682Z,48.30
2019-03-31T12:33:34.062Z,51.97
2019-03-31T12:36:06.225Z,63.10
2019-03-31T12:38:36.499Z,53.23
2019-03-31T12:41:06.779Z,56.37
2019-03-31T12:43:36.974Z,56.87
2019-03-31T12:46:07.352Z,52.27
2019-03-31T12:48:37.905Z,51.90
2019-03-31T12:51:08.397Z,45.40
2019-03-31T12:53:38.834Z,46.13
2019-03-31T12:56:12.798Z,45.33
2019-03-31T12:58:43.229Z,48.83
2019-03-31T13:01:14.592Z,42.07
2019-03-31T13:03:45.034Z,45.08
2019-03-31T13:06:16.486Z,39.33
2019-03-31T13:08:46.683Z,38.93
2019-03-31T13:11:17.200Z,38.55
2019-03-31T13:13:47.667Z,41.20
2019-03-31T13:16:17.883Z,38.27
2019-03-31T13:18:48.075Z,35.93
2019-03-31T13:21:18.282Z,41.43
2019-03-31T13:23:48.750Z,42.43
2019-03-31T13:26:19.122Z,42.93
2019-03-31T13:28:49.306Z,46.17
2019-03-31T13:31:19.934Z,43.13
2019-03-31T13:33:50.194Z,45.67
2019-03-31T13:36:20.469Z,39.90
2019-03-31T13:38:51.079Z,36.30
2019-03-31T13:41:21.288Z,39.57
2019-03-31T13:43:51.479Z,39.73
2019-03-31T13:46:21.679Z,35.40
2019-03-31T13:48:52.107Z,38.00
2019-03-31T13:51:24.593Z,30.07
2019-03-31T13:53:54.182Z,32.90
2019-03-31T13:56:24.389Z,32.80
2019-03-31T13:58:54.667Z,28.50
2019-03-31T14:01:25.098Z,30.33
2019-03-31T14:03:55.361Z,36.30
2019-03-31T14:06:25.677Z,35.58
2019-03-31T14:08:55.947Z,34.50
2019-03-31T14:11:26.139Z,41.13
2019-03-31T14:13:56.417Z,39.48
2019-03-31T14:16:29.153Z,33.18
2019-03-31T14:18:58.657Z,36.87
2019-03-31T14:21:28.861Z,33.20
2019-03-31T14:23:59.215Z,37.15
2019-03-31T14:26:30.387Z,35.63
2019-03-31T14:29:00.658Z,43.73
2019-03-31T14:31:31.345Z,44.42
2019-03-31T14:34:01.644Z,45.93
2019-03-31T14:36:31.920Z,42.53
2019-03-31T14:39:02.362Z,43.00
2019-03-31T14:41:32.871Z,40.00
2019-03-31T14:44:03.456Z,46.80
2019-03-31T14:46:33.671Z,40.77
2019-03-31T14:49:04.120Z,46.15
2019-03-31T14:51:34.313Z,48.03
2019-03-31T14:54:04.580Z,51.23
2019-03-31T14:56:34.794Z,47.83
2019-03-31T14:59:05.053Z,45.87
2019-03-31T15:01:35.303Z,46.08
2019-03-31T15:04:06.731Z,45.07
2019-03-31T15:06:37.282Z,47.00
2019-03-31T15:09:08.547Z,45.07
2019-03-31T15:11:39.144Z,42.40
2019-03-31T15:14:09.354Z,41.20
2019-03-31T15:16:39.853Z,46.23
2019-03-31T15:19:10.045Z,45.80
2019-03-31T15:21:44.121Z,44.27
2019-03-31T15:24:12.408Z,43.45
2019-03-31T15:26:42.602Z,40.53
2019-03-31T15:29:12.912Z,38.57
2019-03-31T15:31:43.362Z,45.45
2019-03-31T15:34:13.689Z,48.42
2019-03-31T15:36:44.971Z,44.97
2019-03-31T15:39:16.037Z,41.67
2019-03-31T15:41:46.330Z,46.23
2019-03-31T15:44:16.696Z,43.00
2019-03-31T15:46:47.057Z,39.27
2019-03-31T15:49:17.277Z,36.43
2019-03-31T15:51:47.778Z,43.07
2019-03-31T15:54:17.969Z,35.23
2019-03-31T15:56:48.186Z,28.67
2019-03-31T15:59:18.403Z,26.75
2019-03-31T16:01:48.922Z,28.13
2019-03-31T16:04:20.256Z,34.77
2019-03-31T16:06:50.495Z,33.30
2019-03-31T16:09:23.691Z,30.10
2019-03-31T16:11:53.962Z,33.47
2019-03-31T16:14:23.582Z,32.20
2019-03-31T16:16:53.247Z,27.50
2019-03-31T16:19:22.956Z,29.57
2019-03-31T16:21:52.634Z,23.33
2019-03-31T16:24:35.236Z,27.00
2019-03-31T16:27:05.067Z,33.73
2019-03-31T16:29:34.984Z,26.60
2019-03-31T16:32:05.495Z,20.68
2019-03-31T16:34:35.170Z,21.87
2019-03-31T16:37:05.194Z,27.83
2019-03-31T16:39:37.783Z,24.47
2019-03-31T16:42:06.865Z,27.05
2019-03-31T16:44:36.773Z,26.00
2019-03-31T16:47:06.443Z,21.27
2019-03-31T16:49:36.408Z,19.87
2019-03-31T16:52:06.061Z,24.57
2019-03-31T16:54:35.701Z,18.57
2019-03-31T16:57:05.609Z,22.13
2019-03-31T16:59:35.319Z,22.60
2019-03-31T17:02:05.075Z,21.70
2019-03-31T17:04:34.971Z,18.20
2019-03-31T17:07:04.781Z,17.27
2019-03-31T17:09:35.418Z,16.32
2019-03-31T17:12:05.399Z,17.27
2019-03-31T17:14:36.033Z,14.67
2019-03-31T17:17:05.851Z,13.85
2019-03-31T17:19:35.422Z,13.80
2019-03-31T17:22:05.080Z,16.50
2019-03-31T17:24:34.989Z,14.83
2019-03-31T17:27:04.665Z,13.08
2019-03-31T17:29:34.572Z,11.97
2019-03-31T17:32:04.572Z,10.83
2019-03-31T17:34:34.224Z,11.13
2019-03-31T17:37:04.199Z,10.70
2019-03-31T17:39:33.844Z,13.27
2019-03-31T17:42:03.668Z,11.00
2019-03-31T17:44:34.700Z,13.13
2019-03-31T17:47:04.367Z,10.32
2019-03-31T17:49:34.027Z,10.70
2019-03-31T17:52:03.804Z,9.87
2019-03-31T17:54:33.453Z,9.00
2019-03-31T17:57:03.599Z,7.47
2019-03-31T17:59:33.264Z,11.30
2019-03-31T18:02:03.356Z,9.27
2019-03-31T18:04:33.251Z,8.60
2019-03-31T18:07:03.081Z,8.40
2019-03-31T18:09:32.721Z,7.87
2019-03-31T18:12:02.403Z,9.90
2019-03-31T18:14:32.188Z,11.57
2019-03-31T18:17:02.097Z,11.18
2019-03-31T18:19:31.997Z,9.17
2019-03-31T18:22:15.605Z,8.97
2019-03-31T18:24:33.265Z,11.53
2019-03-31T18:27:03.271Z,9.60
2019-03-31T18:29:32.913Z,8.60
2019-03-31T18:32:02.582Z,8.53
2019-03-31T18:34:32.231Z,7.10
2019-03-31T18:37:02.134Z,8.53
2019-03-31T18:39:31.797Z,7.62
2019-03-31T18:42:01.444Z,10.80
2019-03-31T18:44:31.122Z,9.37
2019-03-31T18:47:00.777Z,10.33
2019-03-31T18:49:30.429Z,7.63
2019-03-31T18:52:00.079Z,8.95
2019-03-31T18:54:38.719Z,7.73
2019-03-31T18:57:24.513Z,9.53
2019-03-31T19:00:19.299Z,8.67
2019-03-31T19:02:56.098Z,11.85
2019-03-31T19:05:53.581Z,7.43
2019-03-31T19:08:38.937Z,8.70
2019-03-31T19:11:27.727Z,6.37
2019-03-31T19:14:22.390Z,7.87
2019-03-31T19:17:12.227Z,9.43
2019-03-31T19:19:48.235Z,10.70
2019-03-31T19:22:33.942Z,6.65
2019-03-31T19:25:18.086Z,7.97
2019-03-31T19:28:15.736Z,9.07
2019-03-31T19:31:02.058Z,9.40
2019-03-31T19:34:05.691Z,7.43
2019-03-31T19:36:53.304Z,6.65
2019-03-31T19:39:40.722Z,6.83
2019-03-31T19:42:29.398Z,6.43
2019-03-31T19:45:05.755Z,6.58
2019-03-31T19:48:05.616Z,6.73
2019-03-31T19:50:53.585Z,7.17
2019-03-31T19:53:47.874Z,8.68
2019-03-31T19:56:27.808Z,7.60
2019-03-31T19:59:20.696Z,8.20
2019-03-31T20:01:57.656Z,9.48
2019-03-31T20:04:58.367Z,8.07
2019-03-31T20:07:35.422Z,8.00
2019-03-31T20:10:14.590Z,7.97
2019-03-31T20:13:12.165Z,7.60
2019-03-31T20:16:02.473Z,10.93
2019-03-31T20:18:40.686Z,6.80
2019-03-31T20:21:32.182Z,8.33
2019-03-31T20:24:07.452Z,12.07
2019-03-31T20:26:58.505Z,8.50
2019-03-31T20:29:37.082Z,9.63
2019-03-31T20:32:24.110Z,8.48
2019-03-31T20:34:59.795Z,7.25
2019-03-31T20:37:44.220Z,7.25
2019-03-31T20:40:20.764Z,11.85
2019-03-31T20:43:00.749Z,10.13
2019-03-31T20:45:30.682Z,9.13
2019-03-31T20:48:00.802Z,9.30
2019-03-31T20:50:30.614Z,9.20
2019-03-31T20:53:00.776Z,9.83
2019-03-31T20:55:30.441Z,12.90
2019-03-31T20:58:00.512Z,13.70
2019-03-31T21:00:30.769Z,11.43
2019-03-31T21:03:00.454Z,10.20
2019-03-31T21:05:30.112Z,10.00
2019-03-31T21:08:00.011Z,11.77
2019-03-31T21:10:29.670Z,8.50
2019-03-31T21:12:59.586Z,10.90
2019-03-31T21:15:29.337Z,9.00
2019-03-31T21:17:58.984Z,8.83
2019-03-31T21:20:28.636Z,9.18
2019-03-31T21:22:58.290Z,6.60
2019-03-31T21:25:27.962Z,8.77
2019-03-31T21:27:57.890Z,8.20
2019-03-31T21:30:28.187Z,6.62
2019-03-31T21:32:57.836Z,11.27
2019-03-31T21:35:27.516Z,11.85
2019-03-31T21:37:57.186Z,5.97
2019-03-31T21:40:27.814Z,6.70
2019-03-31T21:42:57.760Z,6.67
2019-03-31T21:45:27.415Z,8.40
2019-03-31T21:47:57.059Z,4.83
2019-03-31T21:50:26.858Z,5.83
2019-03-31T21:52:56.495Z,9.93
2019-03-31T21:55:26.492Z,8.93
2019-03-31T21:57:58.208Z,8.83
2019-03-31T22:00:45.405Z,7.25
2019-03-31T22:03:17.019Z,3.87
2019-03-31T22:05:47.066Z,5.42
2019-03-31T22:08:16.779Z,7.43
2019-03-31T22:10:46.648Z,7.97
2019-03-31T22:13:17.258Z,7.97
2019-03-31T22:15:47.410Z,7.27
2019-03-31T22:18:17.118Z,6.53
2019-03-31T22:20:47.573Z,6.10
2019-03-31T22:23:18.191Z,9.23
2019-03-31T22:25:47.919Z,6.83
2019-03-31T22:28:17.580Z,4.60
2019-03-31T22:30:47.478Z,7.17
2019-03-31T22:33:17.131Z,5.80
2019-03-31T22:36:05.024Z,8.33
2019-03-31T22:38:34.667Z,9.67
2019-03-31T22:41:04.397Z,6.00
2019-03-31T22:43:34.278Z,7.27
2019-03-31T22:46:04.023Z,9.30
2019-03-31T22:48:33.912Z,8.90
2019-03-31T22:51:04.547Z,8.53
2019-03-31T22:53:34.524Z,11.13
2019-03-31T22:56:04.221Z,5.70
2019-03-31T22:58:33.856Z,6.27
2019-03-31T23:01:03.686Z,12.20
2019-03-31T23:03:33.427Z,12.80
2019-03-31T23:06:03.079Z,8.90
2019-03-31T23:08:32.975Z,7.57
2019-03-31T23:11:02.862Z,8.83
2019-03-31T23:13:32.527Z,11.18
2019-03-31T23:16:02.200Z,6.57
2019-03-31T23:18:31.834Z,7.75
2019-03-31T23:21:01.616Z,7.07
2019-03-31T23:23:31.254Z,6.30
2019-03-31T23:26:02.275Z,7.10
2019-03-31T23:28:31.917Z,6.13
2019-03-31T23:31:03.685Z,5.67
2019-03-31T23:33:32.928Z,8.90
2019-03-31T23:36:04.017Z,11.70
2019-03-31T23:38:33.939Z,6.42
2019-03-31T23:41:03.597Z,7.80
2019-03-31T23:43:33.305Z,5.77
2019-03-31T23:46:02.974Z,6.97
2019-03-31T23:48:32.902Z,10.90
2019-03-31T23:51:02.629Z,8.63
2019-03-31T23:53:32.287Z,10.63
2019-03-31T23:56:02.329Z,7.47
2019-03-31T23:58:32.213Z,6.12
